createdAt,value
2023-02-21T00:03:01.065Z,93332.19
2023-02-21T00:06:22.876Z,93325.56
2023-02-21T00:09:44.432Z,93316.09
2023-02-21T00:13:06.513Z,93318.59
2023-02-21T00:16:28.225Z,93321.69
2023-02-21T00:19:49.820Z,93321.69
2023-02-21T00:23:11.178Z,93315.84
2023-02-21T00:26:37.735Z,93322.50
2023-02-21T00:29:59.509Z,93318.94
2023-02-21T00:33:21.211Z,93318.69
2023-02-21T00:36:42.873Z,93319.50
2023-02-21T00:40:04.293Z,93337.69
2023-02-21T00:43:25.921Z,93330.44
2023-02-21T00:46:47.546Z,93315.78
2023-02-21T00:50:09.268Z,93321.88
2023-02-21T00:53:31.030Z,93328.97
2023-02-21T00:56:52.405Z,93336.72
2023-02-21T01:00:14.035Z,93344.16
2023-02-21T01:03:35.689Z,93340.50
2023-02-21T01:06:57.253Z,93343.72
2023-02-21T01:10:18.690Z,93348.16
2023-02-21T01:13:40.618Z,93363.72
2023-02-21T01:17:12.530Z,93359.72
2023-02-21T01:20:34.893Z,93348.69
2023-02-21T01:23:56.599Z,93349.34
2023-02-21T01:27:19.063Z,93340.78
2023-02-21T01:30:43.835Z,93335.56
2023-02-21T01:34:05.275Z,93346.03
2023-02-21T01:37:26.893Z,93352.69
2023-02-21T01:40:48.725Z,93344.28
2023-02-21T01:44:22.103Z,93344.31
2023-02-21T01:47:44.943Z,93344.50
2023-02-21T01:51:06.721Z,93336.06
2023-02-21T01:54:31.008Z,93340.78
2023-02-21T01:57:54.150Z,93335.41
2023-02-21T02:01:16.390Z,93334.00
2023-02-21T02:04:38.604Z,93326.56
2023-02-21T02:08:02.062Z,93331.97
2023-02-21T02:11:53.658Z,93326.72
2023-02-21T02:15:28.220Z,93317.09
2023-02-21T02:19:09.978Z,93320.44
2023-02-21T02:22:13.392Z,93315.00
2023-02-21T02:25:32.988Z,93314.78
2023-02-21T02:28:50.804Z,93306.78
2023-02-21T02:32:27.699Z,93305.03
2023-02-21T02:35:41.199Z,93301.03
2023-02-21T02:39:05.516Z,93299.91
2023-02-21T02:42:32.394Z,93291.47
2023-02-21T02:45:47.252Z,93293.16
2023-02-21T02:49:02.356Z,93290.91
2023-02-21T02:52:08.478Z,93293.31
2023-02-21T02:55:46.004Z,93292.47
2023-02-21T02:59:12.196Z,93286.88
2023-02-21T03:02:35.499Z,93288.69
2023-02-21T03:05:59.839Z,93291.03
2023-02-21T03:09:26.432Z,93289.78
2023-02-21T03:12:47.764Z,93286.06
2023-02-21T03:15:56.816Z,93289.56
2023-02-21T03:19:21.416Z,93281.53
2023-02-21T03:22:27.512Z,93281.25
2023-02-21T03:25:33.231Z,93275.41
2023-02-21T03:28:39.052Z,93273.16
2023-02-21T03:31:50.634Z,93274.09
2023-02-21T03:34:54.744Z,93270.69
2023-02-21T03:38:00.491Z,93269.75
2023-02-21T03:41:04.884Z,93264.03
2023-02-21T03:44:09.550Z,93274.47
2023-02-21T03:47:13.719Z,93263.59
2023-02-21T03:50:18.163Z,93261.59
2023-02-21T03:53:22.512Z,93258.88
2023-02-21T03:56:33.341Z,93259.69
2023-02-21T04:00:00.487Z,93248.78
2023-02-21T04:03:04.552Z,93252.13
2023-02-21T04:06:11.522Z,93253.00
2023-02-21T04:09:15.441Z,93243.19
2023-02-21T04:12:18.961Z,93243.81
2023-02-21T04:15:22.298Z,93242.44
2023-02-21T04:18:25.610Z,93248.84
2023-02-21T04:21:31.049Z,93243.47
2023-02-21T04:24:36.232Z,93236.94
2023-02-21T04:27:39.809Z,93237.00
2023-02-21T04:30:43.120Z,93242.78
2023-02-21T04:33:46.503Z,93236.28
2023-02-21T04:36:56.227Z,93236.59
2023-02-21T04:39:59.789Z,93231.09
2023-02-21T04:43:03.136Z,93238.16
2023-02-21T04:46:06.493Z,93234.06
2023-02-21T04:49:10.945Z,93231.75
2023-02-21T04:52:14.252Z,93227.06
2023-02-21T04:55:17.547Z,93218.66
2023-02-21T04:58:20.785Z,93218.34
2023-02-21T05:01:24.504Z,93210.13
2023-02-21T05:04:27.934Z,93210.78
2023-02-21T05:07:31.227Z,93210.03
2023-02-21T05:10:45.102Z,93200.69
2023-02-21T05:13:49.122Z,93204.50
2023-02-21T05:16:52.437Z,93189.34
2023-02-21T05:19:56.041Z,93193.34
2023-02-21T05:23:04.780Z,93182.06
2023-02-21T05:26:15.241Z,93177.00
2023-02-21T05:29:19.376Z,93183.34
2023-02-21T05:32:23.581Z,93170.16
2023-02-21T05:35:26.795Z,93171.72
2023-02-21T05:38:30.029Z,93165.31
2023-02-21T05:41:33.370Z,93156.22
2023-02-21T05:44:36.769Z,93150.56
2023-02-21T05:47:40.083Z,93143.66
2023-02-21T05:50:43.484Z,93150.59
2023-02-21T05:53:47.333Z,93148.50
2023-02-21T05:56:51.800Z,93146.09
2023-02-21T05:59:55.229Z,93141.31
2023-02-21T06:02:58.889Z,93145.59
2023-02-21T06:06:03.624Z,93145.03
2023-02-21T06:09:07.627Z,93144.00
2023-02-21T06:12:10.988Z,93145.72
2023-02-21T06:15:15.268Z,93142.47
2023-02-21T06:18:18.695Z,93134.19
2023-02-21T06:21:22.844Z,93132.19
2023-02-21T06:24:26.294Z,93130.28
2023-02-21T06:27:29.510Z,93118.34
2023-02-21T06:30:32.742Z,93117.84
2023-02-21T06:33:36.096Z,93123.41
2023-02-21T06:36:40.637Z,93117.47
2023-02-21T06:39:43.883Z,93112.81
2023-02-21T06:42:47.488Z,93110.00
2023-02-21T06:45:50.706Z,93105.75
2023-02-21T06:48:54.096Z,93116.59
2023-02-21T06:51:57.257Z,93111.81
2023-02-21T06:55:00.655Z,93101.16
2023-02-21T06:58:04.914Z,93098.31
2023-02-21T07:01:08.197Z,93103.53
2023-02-21T07:04:11.461Z,93091.28
2023-02-21T07:07:15.312Z,93096.19
2023-02-21T07:10:18.868Z,93092.13
2023-02-21T07:13:22.636Z,93092.19
2023-02-21T07:16:27.058Z,93098.75
2023-02-21T07:19:30.260Z,93088.47
2023-02-21T07:22:33.519Z,93087.72
2023-02-21T07:25:37.002Z,93088.59
2023-02-21T07:28:40.503Z,93097.81
2023-02-21T07:31:43.814Z,93095.16
2023-02-21T07:34:48.248Z,93091.19
2023-02-21T07:37:51.504Z,93094.81
2023-02-21T07:40:59.166Z,93084.28
2023-02-21T07:44:02.463Z,93076.81
2023-02-21T07:47:05.786Z,93077.34
2023-02-21T07:50:09.294Z,93077.66
2023-02-21T07:53:13.844Z,93073.66
2023-02-21T07:56:17.066Z,93080.34
2023-02-21T07:59:20.300Z,93076.72
2023-02-21T08:02:23.762Z,93079.97
2023-02-21T08:05:27.056Z,93082.13
2023-02-21T08:08:30.458Z,93082.78
2023-02-21T08:11:37.312Z,93080.78
2023-02-21T08:14:40.501Z,93076.13
2023-02-21T08:17:43.692Z,93087.69
2023-02-21T08:20:47.123Z,93081.63
2023-02-21T08:23:54.452Z,93077.66
2023-02-21T08:26:57.738Z,93089.00
2023-02-21T08:30:01.168Z,93078.53
2023-02-21T08:33:04.834Z,93077.72
2023-02-21T08:36:08.316Z,93072.34
2023-02-21T08:39:11.761Z,93081.88
2023-02-21T08:42:15.803Z,93066.97
2023-02-21T08:45:21.775Z,93066.13
2023-02-21T08:48:25.034Z,93063.91
2023-02-21T08:51:33.465Z,93069.38
2023-02-21T08:54:40.222Z,93069.41
2023-02-21T08:57:43.810Z,93068.66
2023-02-21T09:00:47.044Z,93074.59
2023-02-21T09:03:52.885Z,93077.34
2023-02-21T09:06:58.678Z,93072.31
2023-02-21T09:10:06.628Z,93073.66
2023-02-21T09:13:10.153Z,93076.84
2023-02-21T09:16:16.611Z,93085.34
2023-02-21T09:19:22.339Z,93081.69
2023-02-21T09:22:29.042Z,93083.25
2023-02-21T09:25:32.494Z,93083.19
2023-02-21T09:28:36.064Z,93085.56
2023-02-21T09:31:39.504Z,93084.59
2023-02-21T09:34:42.783Z,93088.38
2023-02-21T09:37:47.259Z,93085.75
2023-02-21T09:41:02.300Z,93080.69
2023-02-21T09:44:05.839Z,93075.06
2023-02-21T09:47:11.490Z,93076.13
2023-02-21T09:50:16.768Z,93074.91
2023-02-21T09:53:40.809Z,93077.66
2023-02-21T09:56:44.920Z,93078.44
2023-02-21T09:59:50.176Z,93075.50
2023-02-21T10:03:16.729Z,93074.31
2023-02-21T10:06:39.033Z,93072.06
2023-02-21T10:09:47.862Z,93078.03
2023-02-21T10:13:06.309Z,93066.72
2023-02-21T10:16:27.138Z,93084.47
2023-02-21T10:19:37.871Z,93086.59
2023-02-21T10:22:50.467Z,93098.38
2023-02-21T10:26:01.313Z,93084.56
2023-02-21T10:29:22.794Z,93089.28
2023-02-21T10:32:26.911Z,93092.25
2023-02-21T10:35:30.206Z,93097.81
2023-02-21T10:38:33.927Z,93102.53
2023-02-21T10:41:40.331Z,93108.69
2023-02-21T10:44:44.201Z,93108.22
2023-02-21T10:48:01.521Z,93106.13
2023-02-21T10:51:12.367Z,93107.81
2023-02-21T10:54:21.756Z,93108.94
2023-02-21T10:57:24.988Z,93110.72
2023-02-21T11:00:48.826Z,93111.84
2023-02-21T11:04:00.299Z,93111.63
2023-02-21T11:07:12.417Z,93109.28
2023-02-21T11:10:35.579Z,93122.88
2023-02-21T11:13:39.302Z,93111.84
2023-02-21T11:16:42.566Z,93109.81
2023-02-21T11:19:50.120Z,93109.44
2023-02-21T11:22:53.530Z,93113.41
2023-02-21T11:26:16.987Z,93115.09
2023-02-21T11:29:26.579Z,93119.00
2023-02-21T11:32:38.500Z,93115.03
2023-02-21T11:35:48.627Z,93114.03
2023-02-21T11:39:06.839Z,93116.47
2023-02-21T11:42:29.562Z,93112.81
2023-02-21T11:45:34.910Z,93119.81
2023-02-21T11:48:58.311Z,93121.34
2023-02-21T11:52:07.571Z,93122.25
2023-02-21T11:55:19.783Z,93117.03
2023-02-21T11:59:01.603Z,93122.91
2023-02-21T12:02:26.843Z,93125.59
2023-02-21T12:05:57.054Z,93136.72
2023-02-21T12:09:03.107Z,93140.13
2023-02-21T12:12:17.385Z,93150.59
2023-02-21T12:15:36.156Z,93144.34
2023-02-21T12:19:13.704Z,93148.25
2023-02-21T12:22:23.128Z,93144.94
2023-02-21T12:25:40.068Z,93139.69
2023-02-21T12:29:08.918Z,93144.56
2023-02-21T12:32:35.354Z,93156.44
2023-02-21T12:36:07.263Z,93153.66
2023-02-21T12:39:49.147Z,93149.22
2023-02-21T12:43:11.844Z,93156.22
2023-02-21T12:46:24.210Z,93159.13
2023-02-21T12:49:46.693Z,93161.66
2023-02-21T12:53:04.095Z,93166.22
2023-02-21T12:56:13.657Z,93163.81
2023-02-21T12:59:34.062Z,93169.34
2023-02-21T13:02:40.391Z,93168.56
2023-02-21T13:05:48.665Z,93163.34
2023-02-21T13:09:21.382Z,93163.34
2023-02-21T13:13:17.063Z,93162.56
2023-02-21T13:16:21.248Z,93163.31
2023-02-21T13:19:26.859Z,93166.06
2023-02-21T13:22:49.466Z,93158.16
2023-02-21T13:26:10.978Z,93163.47
2023-02-21T13:29:34.278Z,93162.31
2023-02-21T13:32:51.018Z,93163.59
2023-02-21T13:35:57.384Z,93163.13
2023-02-21T13:39:32.511Z,93168.78
2023-02-21T13:42:39.547Z,93163.78
2023-02-21T13:45:43.001Z,93167.31
2023-02-21T13:48:46.360Z,93174.97
2023-02-21T13:51:53.793Z,93172.72
2023-02-21T13:55:32.213Z,93176.75
2023-02-21T13:58:37.025Z,93182.09
2023-02-21T14:01:42.625Z,93183.84
2023-02-21T14:04:57.761Z,93168.59
2023-02-21T14:08:07.695Z,93182.66
2023-02-21T14:11:11.213Z,93178.25
2023-02-21T14:14:31.704Z,93175.09
2023-02-21T14:17:37.542Z,93171.59
2023-02-21T14:20:40.860Z,93170.28
2023-02-21T14:23:50.458Z,93178.53
2023-02-21T14:26:53.709Z,93177.81
2023-02-21T14:30:02.979Z,93175.66
2023-02-21T14:33:19.133Z,93179.53
2023-02-21T14:36:24.974Z,93179.28
2023-02-21T14:39:35.440Z,93165.59
2023-02-21T14:43:03.276Z,93168.94
2023-02-21T14:46:31.642Z,93166.53
2023-02-21T14:49:48.960Z,93174.66
2023-02-21T14:52:55.085Z,93166.78
2023-02-21T14:56:22.718Z,93160.28
2023-02-21T14:59:53.275Z,93164.56
2023-02-21T15:03:08.408Z,93160.19
2023-02-21T15:06:26.287Z,93153.88
2023-02-21T15:09:29.586Z,93159.84
2023-02-21T15:12:32.871Z,93163.59
2023-02-21T15:15:41.520Z,93157.53
2023-02-21T15:19:00.913Z,93162.63
2023-02-21T15:22:27.004Z,93160.88
2023-02-21T15:25:30.314Z,93156.09
2023-02-21T15:28:34.373Z,93155.41
2023-02-21T15:31:42.399Z,93160.91
2023-02-21T15:34:48.118Z,93153.94
2023-02-21T15:37:51.706Z,93160.22
2023-02-21T15:41:00.454Z,93165.31
2023-02-21T15:44:25.223Z,93162.09
2023-02-21T15:47:34.074Z,93161.06
2023-02-21T15:50:45.284Z,93162.00
2023-02-21T15:54:19.141Z,93160.78
2023-02-21T15:57:26.827Z,93162.84
2023-02-21T16:00:40.340Z,93169.41
2023-02-21T16:03:47.531Z,93171.06
2023-02-21T16:06:55.406Z,93180.16
2023-02-21T16:10:02.515Z,93174.81
2023-02-21T16:13:05.700Z,93170.41
2023-02-21T16:16:10.201Z,93171.44
2023-02-21T16:19:13.268Z,93172.94
2023-02-21T16:22:19.515Z,93167.84
2023-02-21T16:25:28.128Z,93171.06
2023-02-21T16:28:32.435Z,93171.06
2023-02-21T16:31:37.585Z,93169.75
2023-02-21T16:34:40.790Z,93176.16
2023-02-21T16:37:44.007Z,93169.84
2023-02-21T16:40:48.406Z,93173.47
2023-02-21T16:44:02.259Z,93167.31
2023-02-21T16:47:06.686Z,93166.63
2023-02-21T16:50:59.244Z,93175.31
2023-02-21T16:54:03.918Z,93175.47
2023-02-21T16:57:07.286Z,93181.75
2023-02-21T17:00:11.084Z,93188.72
2023-02-21T17:03:14.294Z,93186.84
2023-02-21T17:06:21.244Z,93180.56
2023-02-21T17:09:27.094Z,93173.34
2023-02-21T17:12:30.260Z,93181.53
2023-02-21T17:15:33.606Z,93170.94
2023-02-21T17:18:36.883Z,93169.84
2023-02-21T17:21:40.096Z,93165.72
2023-02-21T17:24:43.753Z,93161.56
2023-02-21T17:27:47.055Z,93152.31
2023-02-21T17:30:50.301Z,93144.53
2023-02-21T17:33:53.554Z,93147.75
2023-02-21T17:36:56.744Z,93157.78
2023-02-21T17:40:00.061Z,93158.31
2023-02-21T17:43:08.528Z,93155.78
2023-02-21T17:46:16.009Z,93155.63
2023-02-21T17:49:22.044Z,93157.13
2023-02-21T17:52:25.359Z,93150.00
2023-02-21T17:55:30.824Z,93158.63
2023-02-21T17:58:34.008Z,93153.38
2023-02-21T18:01:37.180Z,93145.59
2023-02-21T18:04:41.033Z,93147.47
2023-02-21T18:07:48.277Z,93148.56
2023-02-21T18:10:51.662Z,93150.28
2023-02-21T18:13:57.524Z,93153.25
2023-02-21T18:17:00.785Z,93150.16
2023-02-21T18:20:05.035Z,93151.78
2023-02-21T18:23:08.517Z,93152.03
2023-02-21T18:26:13.100Z,93149.63
2023-02-21T18:29:16.184Z,93137.53
2023-02-21T18:32:19.355Z,93139.28
2023-02-21T18:35:22.758Z,93145.47
2023-02-21T18:38:27.031Z,93144.91
2023-02-21T18:41:30.358Z,93134.19
2023-02-21T18:44:34.606Z,93136.06
2023-02-21T18:47:37.831Z,93137.66
2023-02-21T18:50:41.770Z,93136.44
2023-02-21T18:53:45.258Z,93121.81
2023-02-21T18:56:53.340Z,93118.88
2023-02-21T18:59:57.608Z,93117.38
2023-02-21T19:03:01.547Z,93112.13
2023-02-21T19:06:06.939Z,93109.47
2023-02-21T19:09:10.246Z,93105.56
2023-02-21T19:12:13.575Z,93102.63
2023-02-21T19:15:17.952Z,93096.97
2023-02-21T19:18:21.227Z,93094.06
2023-02-21T19:21:25.157Z,93087.91
2023-02-21T19:24:28.773Z,93093.28
2023-02-21T19:27:32.777Z,93090.84
2023-02-21T19:30:39.332Z,93089.63
2023-02-21T19:33:42.549Z,93082.13
2023-02-21T19:36:45.765Z,93078.91
2023-02-21T19:39:48.971Z,93081.31
2023-02-21T19:42:52.318Z,93076.22
2023-02-21T19:45:55.658Z,93075.28
2023-02-21T19:49:00.360Z,93081.78
2023-02-21T19:52:03.533Z,93076.69
2023-02-21T19:55:08.146Z,93085.69
2023-02-21T19:58:11.283Z,93086.47
2023-02-21T20:01:15.096Z,93094.16
2023-02-21T20:04:19.170Z,93089.59
2023-02-21T20:07:22.456Z,93086.88
2023-02-21T20:10:26.105Z,93079.88
2023-02-21T20:13:29.449Z,93079.91
2023-02-21T20:16:37.623Z,93078.53
2023-02-21T20:19:41.014Z,93077.19
2023-02-21T20:22:44.161Z,93068.56
2023-02-21T20:25:47.375Z,93061.28
2023-02-21T20:28:51.902Z,93058.81
2023-02-21T20:31:58.873Z,93051.94
2023-02-21T20:35:02.529Z,93046.72
2023-02-21T20:38:06.538Z,93051.53
2023-02-21T20:41:11.680Z,93049.06
2023-02-21T20:44:15.965Z,93046.66
2023-02-21T20:47:20.335Z,93047.19
2023-02-21T20:50:27.608Z,93047.72
2023-02-21T20:53:30.761Z,93050.25
2023-02-21T20:56:35.725Z,93037.09
2023-02-21T20:59:40.223Z,93032.38
2023-02-21T21:02:43.464Z,93027.78
2023-02-21T21:05:48.846Z,93030.72
2023-02-21T21:08:52.125Z,93031.69
2023-02-21T21:12:01.509Z,93029.16
2023-02-21T21:15:05.466Z,93033.41
2023-02-21T21:18:12.947Z,93030.72
2023-02-21T21:21:16.591Z,93027.44
2023-02-21T21:24:21.621Z,93025.41
2023-02-21T21:27:25.101Z,93014.66
2023-02-21T21:30:28.831Z,93007.84
2023-02-21T21:33:32.126Z,93006.00
2023-02-21T21:36:36.680Z,93008.41
2023-02-21T21:39:39.966Z,93011.56
2023-02-21T21:42:49.766Z,93015.41
2023-02-21T21:45:53.469Z,93024.44
2023-02-21T21:48:56.634Z,93025.78
2023-02-21T21:52:00.632Z,93025.13
2023-02-21T21:55:03.773Z,93037.25
2023-02-21T21:58:14.491Z,93031.38
2023-02-21T22:01:18.048Z,93033.13
2023-02-21T22:04:22.756Z,93037.13
2023-02-21T22:07:25.596Z,93037.06
2023-02-21T22:10:29.914Z,93033.50
2023-02-21T22:13:34.531Z,93025.84
2023-02-21T22:16:39.970Z,93035.41
2023-02-21T22:19:43.710Z,93034.25
2023-02-21T22:22:52.250Z,93034.50
2023-02-21T22:25:57.863Z,93034.72
2023-02-21T22:29:01.127Z,93038.19
2023-02-21T22:32:04.528Z,93035.16
2023-02-21T22:35:08.223Z,93037.19
2023-02-21T22:38:14.998Z,93029.56
2023-02-21T22:41:19.839Z,93021.63
2023-02-21T22:44:25.510Z,93015.09
2023-02-21T22:47:28.698Z,93012.44
2023-02-21T22:50:37.660Z,93017.09
2023-02-21T22:53:42.234Z,93017.66
2023-02-21T22:56:55.431Z,93023.03
2023-02-21T22:59:58.758Z,93025.84
2023-02-21T23:03:13.437Z,93018.19
2023-02-21T23:06:16.527Z,93022.31
2023-02-21T23:09:19.801Z,93023.03
2023-02-21T23:12:23.069Z,93026.78
2023-02-21T23:15:26.870Z,93026.78
2023-02-21T23:18:30.093Z,93028.38
2023-02-21T23:21:33.701Z,93028.50
2023-02-21T23:24:37.192Z,93025.72
2023-02-21T23:27:40.374Z,93016.97
2023-02-21T23:30:43.926Z,93017.09
2023-02-21T23:33:50.326Z,93009.88
2023-02-21T23:36:53.959Z,93007.22
2023-02-21T23:39:57.200Z,93008.91
2023-02-21T23:43:01.698Z,92995.78
2023-02-21T23:46:09.388Z,92991.47
2023-02-21T23:49:16.437Z,92987.56
2023-02-21T23:52:23.387Z,92994.53
2023-02-21T23:55:29.746Z,92991.09
2023-02-21T23:58:33.403Z,92995.94
